sensor_id;sensor_type;location;lat;lon;timestamp;pressure;altitude;pressure_sealevel;temperature;humidity
52949;BME280;38812;50.942;3.644;2023-02-19T00:01:42;102048.66;;;10.14;100.00
52949;BME280;38812;50.942;3.644;2023-02-19T00:04:16;102048.66;;;10.11;100.00
52949;BME280;38812;50.942;3.644;2023-02-19T00:06:42;102046.91;;;10.10;100.00
52949;BME280;38812;50.942;3.644;2023-02-19T00:09:13;102049.53;;;10.16;100.00
52949;BME280;38812;50.942;3.644;2023-02-19T00:11:39;102049.53;;;10.05;100.00
52949;BME280;38812;50.942;3.644;2023-02-19T00:14:06;102038.16;;;10.08;100.00
52949;BME280;38812;50.942;3.644;2023-02-19T00:16:36;102046.00;;;10.03;100.00
52949;BME280;38812;50.942;3.644;2023-02-19T00:19:05;102046.91;;;9.93;100.00
52949;BME280;38812;50.942;3.644;2023-02-19T00:21:30;102049.53;;;9.93;100.00
52949;BME280;38812;50.942;3.644;2023-02-19T00:23:59;102039.88;;;10.00;100.00
52949;BME280;38812;50.942;3.644;2023-02-19T00:26:25;102046.00;;;9.97;100.00
52949;BME280;38812;50.942;3.644;2023-02-19T00:28:51;102043.38;;;9.83;100.00
52949;BME280;38812;50.942;3.644;2023-02-19T00:31:20;102041.63;;;9.87;100.00
52949;BME280;38812;50.942;3.644;2023-02-19T00:33:47;102045.13;;;9.84;100.00
52949;BME280;38812;50.942;3.644;2023-02-19T00:36:13;102053.91;;;9.92;100.00
52949;BME280;38812;50.942;3.644;2023-02-19T00:38:40;102057.41;;;9.91;100.00
52949;BME280;38812;50.942;3.644;2023-02-19T00:41:06;102055.66;;;9.92;100.00
52949;BME280;38812;50.942;3.644;2023-02-19T00:46:26;102052.13;;;9.84;100.00
52949;BME280;38812;50.942;3.644;2023-02-19T00:48:52;102041.59;;;9.76;100.00
52949;BME280;38812;50.942;3.644;2023-02-19T00:51:18;102049.50;;;9.85;100.00
52949;BME280;38812;50.942;3.644;2023-02-19T00:53:44;102046.88;;;9.78;100.00
52949;BME280;38812;50.942;3.644;2023-02-19T00:56:10;102051.25;;;9.85;100.00
52949;BME280;38812;50.942;3.644;2023-02-19T00:58:35;102060.88;;;9.87;100.00
52949;BME280;38812;50.942;3.644;2023-02-19T01:01:02;102066.16;;;9.93;100.00
52949;BME280;38812;50.942;3.644;2023-02-19T01:03:28;102074.00;;;9.87;100.00
52949;BME280;38812;50.942;3.644;2023-02-19T01:05:53;102080.13;;;9.86;100.00
52949;BME280;38812;50.942;3.644;2023-02-19T01:08:19;102077.50;;;10.00;100.00
52949;BME280;38812;50.942;3.644;2023-02-19T01:10:45;102071.41;;;9.90;100.00
52949;BME280;38812;50.942;3.644;2023-02-19T01:13:11;102062.63;;;9.85;100.00
52949;BME280;38812;50.942;3.644;2023-02-19T01:15:36;102060.88;;;9.84;100.00
52949;BME280;38812;50.942;3.644;2023-02-19T01:18:02;102068.75;;;9.84;100.00
52949;BME280;38812;50.942;3.644;2023-02-19T01:20:28;102068.75;;;9.84;100.00
52949;BME280;38812;50.942;3.644;2023-02-19T01:22:53;102073.13;;;9.79;100.00
52949;BME280;38812;50.942;3.644;2023-02-19T01:25:19;102065.22;;;9.76;100.00
52949;BME280;38812;50.942;3.644;2023-02-19T01:27:44;102070.50;;;9.72;100.00
52949;BME280;38812;50.942;3.644;2023-02-19T01:30:10;102070.50;;;9.79;100.00
52949;BME280;38812;50.942;3.644;2023-02-19T01:32:36;102087.16;;;9.90;100.00
52949;BME280;38812;50.942;3.644;2023-02-19T01:35:02;102085.38;;;9.89;100.00
52949;BME280;38812;50.942;3.644;2023-02-19T01:37:28;102079.28;;;9.90;100.00
52949;BME280;38812;50.942;3.644;2023-02-19T01:39:53;102082.78;;;9.91;100.00
52949;BME280;38812;50.942;3.644;2023-02-19T01:42:19;102078.38;;;9.88;100.00
52949;BME280;38812;50.942;3.644;2023-02-19T01:47:10;102095.88;;;9.85;100.00
52949;BME280;38812;50.942;3.644;2023-02-19T01:49:55;102094.13;;;9.85;100.00
52949;BME280;38812;50.942;3.644;2023-02-19T01:52:26;102089.75;;;9.86;100.00
52949;BME280;38812;50.942;3.644;2023-02-19T01:54:52;102074.88;;;9.83;100.00
52949;BME280;38812;50.942;3.644;2023-02-19T01:57:23;102084.47;;;9.77;100.00
52949;BME280;38812;50.942;3.644;2023-02-19T01:59:52;102101.13;;;9.83;100.00
52949;BME280;38812;50.942;3.644;2023-02-19T02:02:20;102095.00;;;9.84;100.00
52949;BME280;38812;50.942;3.644;2023-02-19T02:04:46;102085.38;;;9.83;100.00
52949;BME280;38812;50.942;3.644;2023-02-19T02:07:12;102085.38;;;9.88;100.00
52949;BME280;38812;50.942;3.644;2023-02-19T02:09:56;102080.97;;;9.79;100.00
52949;BME280;38812;50.942;3.644;2023-02-19T02:12:40;102082.75;;;9.82;100.00
52949;BME280;38812;50.942;3.644;2023-02-19T02:15:06;102082.75;;;9.85;100.00
52949;BME280;38812;50.942;3.644;2023-02-19T02:17:52;102093.25;;;9.80;100.00
52949;BME280;38812;50.942;3.644;2023-02-19T02:29:11;102097.66;;;9.90;100.00
52949;BME280;38812;50.942;3.644;2023-02-19T02:31:48;102105.53;;;9.93;100.00
52949;BME280;38812;50.942;3.644;2023-02-19T02:34:19;102106.34;;;9.80;100.00
52949;BME280;38812;50.942;3.644;2023-02-19T02:36:52;102108.13;;;9.81;100.00
52949;BME280;38812;50.942;3.644;2023-02-19T02:39:21;102109.00;;;9.85;100.00
52949;BME280;38812;50.942;3.644;2023-02-19T02:41:58;102099.38;;;9.82;100.00
52949;BME280;38812;50.942;3.644;2023-02-19T02:44:43;102103.75;;;9.86;100.00
52949;BME280;38812;50.942;3.644;2023-02-19T02:47:35;102089.75;;;9.83;100.00
52949;BME280;38812;50.942;3.644;2023-02-19T02:50:30;102095.91;;;9.89;100.00
52949;BME280;38812;50.942;3.644;2023-02-19T02:53:02;102089.75;;;9.86;100.00
52949;BME280;38812;50.942;3.644;2023-02-19T02:55:50;102102.03;;;9.93;100.00
52949;BME280;38812;50.942;3.644;2023-02-19T02:58:19;102091.50;;;9.85;100.00
52949;BME280;38812;50.942;3.644;2023-02-19T03:00:51;102113.38;;;9.81;100.00
52949;BME280;38812;50.942;3.644;2023-02-19T03:03:38;102109.88;;;9.81;100.00
52949;BME280;38812;50.942;3.644;2023-02-19T03:06:06;102108.97;;;9.79;100.00
52949;BME280;38812;50.942;3.644;2023-02-19T03:08:37;102115.09;;;9.79;100.00
52949;BME280;38812;50.942;3.644;2023-02-19T03:11:06;102121.25;;;9.83;100.00
52949;BME280;38812;50.942;3.644;2023-02-19T03:14:30;102121.25;;;9.84;100.00
52949;BME280;38812;50.942;3.644;2023-02-19T03:17:25;102119.50;;;9.85;100.00
52949;BME280;38812;50.942;3.644;2023-02-19T03:20:14;102125.59;;;9.81;100.00
52949;BME280;38812;50.942;3.644;2023-02-19T03:22:43;102126.50;;;9.83;100.00
52949;BME280;38812;50.942;3.644;2023-02-19T03:25:17;102125.66;;;9.91;100.00
52949;BME280;38812;50.942;3.644;2023-02-19T03:28:04;102134.41;;;9.90;100.00
52949;BME280;38812;50.942;3.644;2023-02-19T03:30:33;102133.53;;;9.90;100.00
52949;BME280;38812;50.942;3.644;2023-02-19T03:33:03;102126.47;;;9.75;100.00
52949;BME280;38812;50.942;3.644;2023-02-19T03:35:34;102139.59;;;9.81;100.00
52949;BME280;38812;50.942;3.644;2023-02-19T03:38:19;102137.88;;;9.83;100.00
52949;BME280;38812;50.942;3.644;2023-02-19T03:43:30;102142.22;;;9.74;100.00
52949;BME280;38812;50.942;3.644;2023-02-19T03:48:35;102145.72;;;9.70;100.00
52949;BME280;38812;50.942;3.644;2023-02-19T03:53:41;102153.59;;;9.77;100.00
52949;BME280;38812;50.942;3.644;2023-02-19T04:01:16;102163.19;;;9.69;100.00
52949;BME280;38812;50.942;3.644;2023-02-19T04:06:13;102155.34;;;9.69;100.00
52949;BME280;38812;50.942;3.644;2023-02-19T04:08:43;102169.34;;;9.74;100.00
52949;BME280;38812;50.942;3.644;2023-02-19T04:11:10;102172.81;;;9.67;100.00
52949;BME280;38812;50.942;3.644;2023-02-19T04:13:42;102174.59;;;9.71;100.00
52949;BME280;38812;50.942;3.644;2023-02-19T04:16:14;102176.31;;;9.75;100.00
52949;BME280;38812;50.942;3.644;2023-02-19T04:18:43;102183.34;;;9.73;100.00
52949;BME280;38812;50.942;3.644;2023-02-19T04:21:11;102185.94;;;9.70;100.00
52949;BME280;38812;50.942;3.644;2023-02-19T04:23:41;102174.59;;;9.71;100.00
52949;BME280;38812;50.942;3.644;2023-02-19T04:26:08;102193.84;;;9.72;100.00
52949;BME280;38812;50.942;3.644;2023-02-19T04:28:34;102190.31;;;9.65;100.00
52949;BME280;38812;50.942;3.644;2023-02-19T04:31:00;102195.53;;;9.62;100.00
52949;BME280;38812;50.942;3.644;2023-02-19T04:33:26;102191.16;;;9.61;100.00
52949;BME280;38812;50.942;3.644;2023-02-19T04:35:51;102195.53;;;9.65;100.00
52949;BME280;38812;50.942;3.644;2023-02-19T04:38:17;102196.38;;;9.59;100.00
52949;BME280;38812;50.942;3.644;2023-02-19T04:40:42;102198.16;;;9.60;100.00
52949;BME280;38812;50.942;3.644;2023-02-19T04:43:08;102200.78;;;9.65;100.00
52949;BME280;38812;50.942;3.644;2023-02-19T04:45:33;102186.72;;;9.54;100.00
52949;BME280;38812;50.942;3.644;2023-02-19T04:48:00;102200.78;;;9.60;100.00
52949;BME280;38812;50.942;3.644;2023-02-19T04:50:26;102199.88;;;9.51;100.00
52949;BME280;38812;50.942;3.644;2023-02-19T04:52:51;102198.16;;;9.60;100.00
52949;BME280;38812;50.942;3.644;2023-02-19T04:55:17;102213.00;;;9.58;100.00
52949;BME280;38812;50.942;3.644;2023-02-19T04:57:42;102206.00;;;9.57;100.00
52949;BME280;38812;50.942;3.644;2023-02-19T05:00:08;102212.13;;;9.61;100.00
52949;BME280;38812;50.942;3.644;2023-02-19T05:02:34;102220.84;;;9.54;100.00
52949;BME280;38812;50.942;3.644;2023-02-19T05:04:59;102227.84;;;9.55;100.00
52949;BME280;38812;50.942;3.644;2023-02-19T05:07:25;102224.34;;;9.48;100.00
52949;BME280;38812;50.942;3.644;2023-02-19T05:09:50;102216.41;;;9.41;100.00
52949;BME280;38812;50.942;3.644;2023-02-19T05:12:15;102223.38;;;9.39;100.00
52949;BME280;38812;50.942;3.644;2023-02-19T05:14:41;102226.00;;;9.39;100.00
52949;BME280;38812;50.942;3.644;2023-02-19T05:17:06;102233.91;;;9.43;100.00
52949;BME280;38812;50.942;3.644;2023-02-19T05:19:31;102231.28;;;9.43;100.00
52949;BME280;38812;50.942;3.644;2023-02-19T05:21:57;102238.28;;;9.44;100.00
52949;BME280;38812;50.942;3.644;2023-02-19T05:24:22;102236.56;;;9.46;100.00
52949;BME280;38812;50.942;3.644;2023-02-19T05:26:48;102247.03;;;9.43;100.00
52949;BME280;38812;50.942;3.644;2023-02-19T05:29:14;102247.91;;;9.42;100.00
52949;BME280;38812;50.942;3.644;2023-02-19T05:31:40;102246.16;;;9.44;100.00
52949;BME280;38812;50.942;3.644;2023-02-19T05:34:05;102252.28;;;9.43;100.00
52949;BME280;38812;50.942;3.644;2023-02-19T05:36:31;102254.91;;;9.45;100.00
52949;BME280;38812;50.942;3.644;2023-02-19T05:38:56;102261.94;;;9.49;100.00
52949;BME280;38812;50.942;3.644;2023-02-19T05:41:25;102263.63;;;9.42;100.00
52949;BME280;38812;50.942;3.644;2023-02-19T05:43:51;102259.22;;;9.37;100.00
52949;BME280;38812;50.942;3.644;2023-02-19T05:46:20;102267.16;;;9.46;100.00
52949;BME280;38812;50.942;3.644;2023-02-19T05:48:47;102260.13;;;9.42;100.00
52949;BME280;38812;50.942;3.644;2023-02-19T05:51:15;102268.81;;;9.35;100.00
52949;BME280;38812;50.942;3.644;2023-02-19T05:53:42;102274.06;;;9.36;100.00
52949;BME280;38812;50.942;3.644;2023-02-19T05:58:48;102278.47;;;9.37;100.00
52949;BME280;38812;50.942;3.644;2023-02-19T06:01:16;102276.72;;;9.38;100.00
52949;BME280;38812;50.942;3.644;2023-02-19T06:03:42;102277.59;;;9.40;100.00
52949;BME280;38812;50.942;3.644;2023-02-19T06:06:09;102276.72;;;9.39;100.00
52949;BME280;38812;50.942;3.644;2023-02-19T06:08:37;102291.59;;;9.39;100.00
52949;BME280;38812;50.942;3.644;2023-02-19T06:11:02;102288.06;;;9.37;100.00
52949;BME280;38812;50.942;3.644;2023-02-19T06:13:28;102292.41;;;9.33;100.00
52949;BME280;38812;50.942;3.644;2023-02-19T06:15:53;102293.28;;;9.27;100.00
52949;BME280;38812;50.942;3.644;2023-02-19T06:18:19;102299.41;;;9.28;100.00
52949;BME280;38812;50.942;3.644;2023-02-19T06:20:44;102296.81;;;9.37;100.00
52949;BME280;38812;50.942;3.644;2023-02-19T06:23:09;102297.66;;;9.33;100.00
52949;BME280;38812;50.942;3.644;2023-02-19T06:25:35;102300.25;;;9.32;100.00
52949;BME280;38812;50.942;3.644;2023-02-19T06:28:00;102304.75;;;9.43;100.00
52949;BME280;38812;50.942;3.644;2023-02-19T06:30:26;102305.56;;;9.38;100.00
52949;BME280;38812;50.942;3.644;2023-02-19T06:32:51;102310.81;;;9.38;100.00
52949;BME280;38812;50.942;3.644;2023-02-19T06:35:18;102308.19;;;9.38;100.00
52949;BME280;38812;50.942;3.644;2023-02-19T06:37:45;102317.78;;;9.36;100.00
52949;BME280;38812;50.942;3.644;2023-02-19T06:40:11;102318.63;;;9.32;100.00
52949;BME280;38812;50.942;3.644;2023-02-19T06:42:36;102321.34;;;9.41;100.00
52949;BME280;38812;50.942;3.644;2023-02-19T06:45:02;102331.75;;;9.32;100.00
52949;BME280;38812;50.942;3.644;2023-02-19T06:47:31;102324.75;;;9.29;100.00
52949;BME280;38812;50.942;3.644;2023-02-19T06:49:57;102322.13;;;9.29;100.00
52949;BME280;38812;50.942;3.644;2023-02-19T06:52:22;102324.78;;;9.37;100.00
52949;BME280;38812;50.942;3.644;2023-02-19T06:54:47;102330.00;;;9.34;100.00
52949;BME280;38812;50.942;3.644;2023-02-19T06:57:13;102326.44;;;9.22;100.00
52949;BME280;38812;50.942;3.644;2023-02-19T06:59:38;102313.38;;;9.27;100.00
52949;BME280;38812;50.942;3.644;2023-02-19T07:02:04;102329.03;;;9.21;100.00
52949;BME280;38812;50.942;3.644;2023-02-19T07:04:29;102321.97;;;9.12;100.00
52949;BME280;38812;50.942;3.644;2023-02-19T07:06:54;102325.53;;;9.19;100.00
52949;BME280;38812;50.942;3.644;2023-02-19T07:09:20;102333.38;;;9.17;100.00
52949;BME280;38812;50.942;3.644;2023-02-19T07:11:46;102335.16;;;9.20;100.00
52949;BME280;38812;50.942;3.644;2023-02-19T07:14:14;102338.63;;;9.17;100.00
52949;BME280;38812;50.942;3.644;2023-02-19T07:16:40;102340.34;;;9.15;100.00
52949;BME280;38812;50.942;3.644;2023-02-19T07:19:05;102344.75;;;9.19;100.00
52949;BME280;38812;50.942;3.644;2023-02-19T07:21:30;102350.91;;;9.21;100.00
52949;BME280;38812;50.942;3.644;2023-02-19T07:23:56;102346.53;;;9.22;100.00
52949;BME280;38812;50.942;3.644;2023-02-19T07:26:22;102359.75;;;9.36;100.00
52949;BME280;38812;50.942;3.644;2023-02-19T07:28:49;102348.31;;;9.26;100.00
52949;BME280;38812;50.942;3.644;2023-02-19T07:31:17;102356.16;;;9.21;100.00
52949;BME280;38812;50.942;3.644;2023-02-19T07:33:43;102364.97;;;9.30;100.00
52949;BME280;38812;50.942;3.644;2023-02-19T07:36:09;102373.75;;;9.38;100.00
52949;BME280;38812;50.942;3.644;2023-02-19T07:38:34;102374.63;;;9.37;100.00
52949;BME280;38812;50.942;3.644;2023-02-19T07:41:01;102382.59;;;9.46;100.00
52949;BME280;38812;50.942;3.644;2023-02-19T07:43:29;102382.50;;;9.38;100.00
52949;BME280;38812;50.942;3.644;2023-02-19T07:45:55;102383.34;;;9.34;100.00
52949;BME280;38812;50.942;3.644;2023-02-19T07:48:21;102394.75;;;9.38;100.00
52949;BME280;38812;50.942;3.644;2023-02-19T07:50:55;102403.53;;;9.43;100.00
52949;BME280;38812;50.942;3.644;2023-02-19T07:53:22;102396.47;;;9.36;100.00
52949;BME280;38812;50.942;3.644;2023-02-19T07:55:47;102413.13;;;9.39;100.00
52949;BME280;38812;50.942;3.644;2023-02-19T07:58:13;102402.72;;;9.47;100.00
52949;BME280;38812;50.942;3.644;2023-02-19T08:00:38;102405.31;;;9.45;100.00
52949;BME280;38812;50.942;3.644;2023-02-19T08:03:04;102411.50;;;9.56;100.00
52949;BME280;38812;50.942;3.644;2023-02-19T08:05:32;102412.38;;;9.57;100.00
52949;BME280;38812;50.942;3.644;2023-02-19T08:07:59;102413.25;;;9.56;100.00
52949;BME280;38812;50.942;3.644;2023-02-19T08:10:25;102402.72;;;9.47;100.00
52949;BME280;38812;50.942;3.644;2023-02-19T08:13:14;102422.88;;;9.57;100.00
52949;BME280;38812;50.942;3.644;2023-02-19T08:18:32;102434.41;;;9.76;100.00
52949;BME280;38812;50.942;3.644;2023-02-19T08:20:59;102439.69;;;9.80;100.00
52949;BME280;38812;50.942;3.644;2023-02-19T08:23:26;102446.78;;;9.96;100.00
52949;BME280;38812;50.942;3.644;2023-02-19T08:25:56;102448.53;;;9.91;100.00
52949;BME280;38812;50.942;3.644;2023-02-19T08:28:21;102445.09;;;10.03;100.00
52949;BME280;38812;50.942;3.644;2023-02-19T08:30:47;102453.84;;;10.04;100.00
52949;BME280;38812;50.942;3.644;2023-02-19T08:33:17;102453.00;;;10.05;100.00
52949;BME280;38812;50.942;3.644;2023-02-19T08:35:42;102460.88;;;10.05;100.00
52949;BME280;38812;50.942;3.644;2023-02-19T08:38:10;102478.31;;;9.96;100.00
52949;BME280;38812;50.942;3.644;2023-02-19T08:40:37;102480.00;;;9.88;100.00
52949;BME280;38812;50.942;3.644;2023-02-19T08:43:04;102481.75;;;9.86;100.00
52949;BME280;38812;50.942;3.644;2023-02-19T08:45:30;102486.94;;;9.82;100.00
52949;BME280;38812;50.942;3.644;2023-02-19T08:47:56;102481.81;;;9.94;100.00
52949;BME280;38812;50.942;3.644;2023-02-19T08:50:22;102488.81;;;9.95;100.00
52949;BME280;38812;50.942;3.644;2023-02-19T08:52:47;102488.00;;;10.04;100.00
52949;BME280;38812;50.942;3.644;2023-02-19T08:55:12;102493.19;;;9.94;100.00
52949;BME280;38812;50.942;3.644;2023-02-19T08:57:38;102507.22;;;10.00;100.00
52949;BME280;38812;50.942;3.644;2023-02-19T09:00:04;102498.53;;;10.07;100.00
52949;BME280;38812;50.942;3.644;2023-02-19T09:02:30;102486.22;;;10.03;100.00
52949;BME280;38812;50.942;3.644;2023-02-19T09:04:56;102497.69;;;10.11;100.00
52949;BME280;38812;50.942;3.644;2023-02-19T09:07:21;102494.13;;;10.06;100.00
52949;BME280;38812;50.942;3.644;2023-02-19T09:09:47;102508.22;;;10.15;100.00
52949;BME280;38812;50.942;3.644;2023-02-19T09:12:13;102484.47;;;10.02;100.00
52949;BME280;38812;50.942;3.644;2023-02-19T09:14:39;102485.50;;;10.20;100.00
52949;BME280;38812;50.942;3.644;2023-02-19T09:17:06;102504.03;;;10.40;100.00
52949;BME280;38812;50.942;3.644;2023-02-19T09:19:32;102505.81;;;10.44;100.00
52949;BME280;38812;50.942;3.644;2023-02-19T09:21:58;102502.25;;;10.33;100.00
52949;BME280;38812;50.942;3.644;2023-02-19T09:24:23;102515.47;;;10.47;100.00
52949;BME280;38812;50.942;3.644;2023-02-19T09:26:53;102518.06;;;10.39;100.00
52949;BME280;38812;50.942;3.644;2023-02-19T09:29:20;102504.88;;;10.35;100.00
52949;BME280;38812;50.942;3.644;2023-02-19T09:31:46;102501.47;;;10.51;100.00
52949;BME280;38812;50.942;3.644;2023-02-19T09:34:11;102501.41;;;10.43;100.00
52949;BME280;38812;50.942;3.644;2023-02-19T09:36:37;102504.06;;;10.48;100.00
52949;BME280;38812;50.942;3.644;2023-02-19T09:39:04;102490.94;;;10.49;100.00
52949;BME280;38812;50.942;3.644;2023-02-19T09:41:34;102502.38;;;10.57;100.00
52949;BME280;38812;50.942;3.644;2023-02-19T09:44:03;102509.44;;;10.68;100.00
52949;BME280;38812;50.942;3.644;2023-02-19T09:46:43;102500.66;;;10.59;100.00
52949;BME280;38812;50.942;3.644;2023-02-19T09:49:14;102519.94;;;10.64;100.00
52949;BME280;38812;50.942;3.644;2023-02-19T09:51:51;102523.53;;;10.82;100.00
52949;BME280;38812;50.942;3.644;2023-02-19T09:54:27;102506.00;;;10.87;100.00
52949;BME280;38812;50.942;3.644;2023-02-19T09:56:55;102515.63;;;10.76;100.00
52949;BME280;38812;50.942;3.644;2023-02-19T09:59:23;102529.59;;;10.70;100.00
52949;BME280;38812;50.942;3.644;2023-02-19T10:01:54;102531.31;;;10.57;100.00
52949;BME280;38812;50.942;3.644;2023-02-19T10:04:23;102535.72;;;10.68;100.00
52949;BME280;38812;50.942;3.644;2023-02-19T10:06:48;102529.56;;;10.58;100.00
52949;BME280;38812;50.942;3.644;2023-02-19T10:09:22;102533.81;;;10.44;100.00
52949;BME280;38812;50.942;3.644;2023-02-19T10:11:50;102551.44;;;10.55;100.00
52949;BME280;38812;50.942;3.644;2023-02-19T10:14:27;102540.91;;;10.55;100.00
52949;BME280;38812;50.942;3.644;2023-02-19T10:17:03;102558.41;;;10.52;100.00
52949;BME280;38812;50.942;3.644;2023-02-19T10:19:30;102562.84;;;10.62;100.00
52949;BME280;38812;50.942;3.644;2023-02-19T10:21:56;102567.25;;;10.60;100.00
52949;BME280;38812;50.942;3.644;2023-02-19T10:24:26;102568.19;;;10.73;100.00
52949;BME280;38812;50.942;3.644;2023-02-19T10:26:53;102566.41;;;10.70;100.00
52949;BME280;38812;50.942;3.644;2023-02-19T10:29:19;102575.25;;;10.84;100.00
52949;BME280;38812;50.942;3.644;2023-02-19T10:31:46;102571.75;;;10.87;100.00
52949;BME280;38812;50.942;3.644;2023-02-19T10:34:21;102576.19;;;10.94;100.00
52949;BME280;38812;50.942;3.644;2023-02-19T10:36:51;102575.34;;;11.06;100.00
52949;BME280;38812;50.942;3.644;2023-02-19T10:39:37;102570.09;;;11.04;100.00
52949;BME280;38812;50.942;3.644;2023-02-19T10:42:04;102574.44;;;10.96;100.00
52949;BME280;38812;50.942;3.644;2023-02-19T10:44:40;102569.22;;;11.08;100.00
52949;BME280;38812;50.942;3.644;2023-02-19T10:47:06;102572.75;;;11.13;100.00
52949;BME280;38812;50.942;3.644;2023-02-19T10:49:37;102589.41;;;11.12;100.00
52949;BME280;38812;50.942;3.644;2023-02-19T10:52:24;102606.13;;;11.29;100.00
52949;BME280;38812;50.942;3.644;2023-02-19T10:54:54;102599.03;;;11.07;100.00
52949;BME280;38812;50.942;3.644;2023-02-19T11:00:27;102610.41;;;11.02;100.00
52949;BME280;38812;50.942;3.644;2023-02-19T11:05:59;102612.19;;;11.04;100.00
52949;BME280;38812;50.942;3.644;2023-02-19T11:08:25;102621.72;;;10.90;100.00
52949;BME280;38812;50.942;3.644;2023-02-19T11:10:51;102620.72;;;10.70;100.00
52949;BME280;38812;50.942;3.644;2023-02-19T11:13:27;102632.94;;;10.58;100.00
52949;BME280;38812;50.942;3.644;2023-02-19T11:15:55;102633.75;;;10.51;100.00
52949;BME280;38812;50.942;3.644;2023-02-19T11:18:27;102630.22;;;10.48;100.00
52949;BME280;38812;50.942;3.644;2023-02-19T11:20:55;102638.03;;;10.43;100.00
52949;BME280;38812;50.942;3.644;2023-02-19T11:23:30;102631.06;;;10.45;100.00
52949;BME280;38812;50.942;3.644;2023-02-19T11:25:58;102636.41;;;10.54;100.00
52949;BME280;38812;50.942;3.644;2023-02-19T11:28:34;102652.22;;;10.59;100.00
52949;BME280;38812;50.942;3.644;2023-02-19T11:31:30;102638.13;;;10.52;100.00
52949;BME280;38812;50.942;3.644;2023-02-19T11:34:20;102641.63;;;10.53;100.00
52949;BME280;38812;50.942;3.644;2023-02-19T11:37:08;102635.38;;;10.40;100.00
52949;BME280;38812;50.942;3.644;2023-02-19T11:39:34;102637.16;;;10.43;100.00
52949;BME280;38812;50.942;3.644;2023-02-19T11:48:26;102618.66;;;10.26;100.00
52949;BME280;38812;50.942;3.644;2023-02-19T11:51:09;102608.19;;;10.30;100.00
52949;BME280;38812;50.942;3.644;2023-02-19T11:53:45;102603.69;;;10.19;100.00
52949;BME280;38812;50.942;3.644;2023-02-19T11:56:20;102586.13;;;10.18;100.00
52949;BME280;38812;50.942;3.644;2023-02-19T11:58:53;102589.66;;;10.17;100.00
52949;BME280;38812;50.942;3.644;2023-02-19T12:25:29;102612.63;;;10.39;100.00
52949;BME280;38812;50.942;3.644;2023-02-19T12:31:12;102622.97;;;10.21;100.00
52949;BME280;38812;50.942;3.644;2023-02-19T12:42:02;102649.00;;;10.00;100.00
52949;BME280;38812;50.942;3.644;2023-02-19T12:44:44;102645.56;;;10.07;100.00
52949;BME280;38812;50.942;3.644;2023-02-19T12:47:22;102662.19;;;10.06;100.00
52949;BME280;38812;50.942;3.644;2023-02-19T12:50:02;102664.94;;;10.18;100.00
52949;BME280;38812;50.942;3.644;2023-02-19T12:52:35;102661.34;;;10.07;100.00
52949;BME280;38812;50.942;3.644;2023-02-19T12:55:23;102661.38;;;10.11;100.00
52949;BME280;38812;50.942;3.644;2023-02-19T12:57:50;102677.16;;;10.13;100.00
52949;BME280;38812;50.942;3.644;2023-02-19T13:00:32;102663.97;;;10.08;100.00
52949;BME280;38812;50.942;3.644;2023-02-19T13:03:22;102670.09;;;10.09;100.00
52949;BME280;38812;50.942;3.644;2023-02-19T13:06:03;102668.19;;;9.92;100.00
52949;BME280;38812;50.942;3.644;2023-02-19T13:09:24;102662.97;;;9.94;100.00
52949;BME280;38812;50.942;3.644;2023-02-19T13:11:44;102656.81;;;9.90;100.00
52949;BME280;38812;50.942;3.644;2023-02-19T13:14:22;102652.47;;;9.94;100.00
52949;BME280;38812;50.942;3.644;2023-02-19T13:16:56;102645.47;;;9.94;100.00
52949;BME280;38812;50.942;3.644;2023-02-19T13:19:24;102660.38;;;9.98;100.00
52949;BME280;38812;50.942;3.644;2023-02-19T13:21:57;102657.75;;;9.95;100.00
52949;BME280;38812;50.942;3.644;2023-02-19T13:24:43;102661.31;;;10.04;100.00
52949;BME280;38812;50.942;3.644;2023-02-19T13:33:10;102666.47;;;9.94;100.00
52949;BME280;38812;50.942;3.644;2023-02-19T13:38:17;102663.84;;;9.96;100.00
52949;BME280;38812;50.942;3.644;2023-02-19T13:40:56;102682.34;;;10.07;100.00
52949;BME280;38812;50.942;3.644;2023-02-19T13:43:26;102675.41;;;10.12;100.00
52949;BME280;38812;50.942;3.644;2023-02-19T13:46:05;102664.81;;;10.06;100.00
52949;BME280;38812;50.942;3.644;2023-02-19T13:48:34;102661.47;;;10.19;100.00
52949;BME280;38812;50.942;3.644;2023-02-19T14:04:23;102684.31;;;10.26;100.00
52949;BME280;38812;50.942;3.644;2023-02-19T14:26:02;102699.50;;;9.74;100.00
52949;BME280;38812;50.942;3.644;2023-02-19T14:30:41;102717.19;;;9.90;100.00
52949;BME280;38812;50.942;3.644;2023-02-19T14:33:09;102711.09;;;9.93;100.00
52949;BME280;38812;50.942;3.644;2023-02-19T14:35:44;102719.06;;;10.04;100.00
52949;BME280;38812;50.942;3.644;2023-02-19T14:38:23;102726.09;;;10.05;100.00
52949;BME280;38812;50.942;3.644;2023-02-19T14:40:50;102723.41;;;10.00;100.00
52949;BME280;38812;50.942;3.644;2023-02-19T14:43:18;102724.22;;;9.93;100.00
52949;BME280;38812;50.942;3.644;2023-02-19T14:48:40;102719.72;;;9.83;100.00
52949;BME280;38812;50.942;3.644;2023-02-19T14:51:15;102711.09;;;9.93;100.00
52949;BME280;38812;50.942;3.644;2023-02-19T14:53:46;102711.88;;;9.87;100.00
52949;BME280;38812;50.942;3.644;2023-02-19T14:56:33;102715.38;;;9.86;100.00
52949;BME280;38812;50.942;3.644;2023-02-19T15:01:37;102718.16;;;10.00;100.00
52949;BME280;38812;50.942;3.644;2023-02-19T15:04:03;102711.03;;;9.88;100.00
52949;BME280;38812;50.942;3.644;2023-02-19T15:06:29;102708.38;;;9.87;100.00
52949;BME280;38812;50.942;3.644;2023-02-19T15:09:02;102710.16;;;9.88;100.00
52949;BME280;38812;50.942;3.644;2023-02-19T15:11:30;102721.44;;;9.81;100.00
52949;BME280;38812;50.942;3.644;2023-02-19T15:14:06;102721.34;;;9.73;100.00